This is the latest recevied weather packets stored in our database for station/object ZL2VAX. If no packets are shown the sender has not sent any weather packets the latest 10 day(s).
| Time | Temp. | Humidity | Pressure | Rain* | Wind** | Luminosity | Snow |
|---|---|---|---|---|---|---|---|
| 1777737975 | 4.44° C | 97% | 1035.9 hPa | 0 mm | - | - | - |
| 1777736167 | 4.44° C | 96% | 1036.1 hPa | 0 mm | - | - | - |
| 1777735563 | 4.44° C | 96% | 1036.2 hPa | 0 mm | - | - | - |
| 1777727127 | 3.89° C | 96% | 1036.1 hPa | 0 mm | - | - | - |
| 1777725340 | 4.44° C | 96% | 1036.1 hPa | 0 mm | - | - | - |
| 1777719957 | 5.56° C | 95% | 1035.7 hPa | 0 mm | - | - | - |
| 1777718756 | 5.56° C | 95% | 1035.7 hPa | 0 mm | - | - | - |
| 1777709170 | 8.33° C | 89% | 1034.8 hPa | 0 mm | - | - | - |
| 1777707361 | 9.44° C | 86% | 1034.7 hPa | 0 mm | - | - | - |
| 1777705574 | 10.56° C | 84% | 1034.5 hPa | 0 mm | - | - | - |
| 1777702541 | 12.22° C | 78% | 1034.1 hPa | 0 mm | - | - | - |
| 1777700171 | 12.78° C | 77% | 1033.7 hPa | 0 mm | - | - | - |
| 1777698925 | 12.78° C | 77% | 1033.6 hPa | 0 mm | - | - | - |
| 1777697762 | 13.33° C | 77% | 1033.7 hPa | 0 mm | - | - | - |
| 1777691754 | 15.56° C | 67% | 1033.4 hPa | 0 mm | - | - | - |
| 1777679160 | 15.56° C | 69% | 1034.9 hPa | 0 mm | - | - | - |
| 1777672561 | 13.89° C | 72% | 1035.5 hPa | 0 mm | - | - | - |
| 1777670151 | 12.78° C | 74% | 1035.9 hPa | 0 mm | - | - | - |
| 1777665933 | 11.11° C | 76% | 1035.8 hPa | 0 mm | - | - | - |
| 1777662921 | 6.67° C | 92% | 1035.5 hPa | 0 mm | - | - | - |
| 1777662317 | 6.11° C | 95% | 1035.5 hPa | 0 mm | - | - | - |
| 1777660569 | 3.89° C | 96% | 1035.7 hPa | 0 mm | - | - | - |
| 1777659968 | 3.89° C | 97% | 1035.8 hPa | 0 mm | - | - | - |
| 1777654544 | 2.22° C | 96% | 1036.1 hPa | 0 mm | - | - | - |
| 1777652155 | 2.22° C | 96% | 1036.3 hPa | 0 mm | - | - | - |
* Rain latest hour (hover to see other rain measurements)
** Current wind speed in m/s (hover to see current wind gust speed)